KALO/ALO METAR and TAF weather

Enter ICAO airport designator
Station Type Date Time Source
KALO METAR 2020/08/15 09:54 UTC NOAA

KALO 150954Z AUTO 32012G20KT 10SM CLR 19/16 A2996 RMK AO2 SLP139 T01890161


Station Type Date Time Source
KALO Decoded METAR 2020/08/15 09:54 UTC NOAA

WATERLOO MUNICIPAL AIRPORT, IA, United States (KALO) 42-33N 92-24W 264M
Aug 15, 2020 - 05:54 AM EDT / 2020.08.15 0954 UTC
Wind: from the NW (320 degrees) at 14 MPH (12 KT) gusting to 23 MPH (20 KT):0
Visibility: 10 mile(s):0
Sky conditions: clear
Temperature: 66.0 F (18.9 C)
Dew Point: 61.0 F (16.1 C)
Relative Humidity: 83%
Pressure (altimeter): 29.96 in. Hg (1014 hPa)
ob: KALO 150954Z AUTO 32012G20KT 10SM CLR 19/16 A2996 RMK AO2 SLP139 T01890161
cycle: 10

Station Type Date Time Source
KALO TAF 2020/08/15 06:22 UTC NOAA

TAF KALO 150520Z 1506/1606 16009KT P6SM VCTS OVC045CB
FM150700 33014G22KT 4SM -TSRA BR BKN035CB BKN080
FM150800 33012G20KT P6SM BKN060
FM151300 34009KT P6SM SKC

Example: see airport list